KMBO

Details ICAO KMBO
Name BRUCE CAMPBELL FLD
Region United States
Timezone America/Chicago (UTC-6.0)
Plans Departing 10
Arriving 3
Stats Elevation 326 ft / 99 m (AMSL)
Location 32.438722° -90.103105°
Runways 1
Magnetic Variation 1.040° W
Sunrise 2017-12-13 12:54:51 UTC / 2017-12-13 06:54:51 Local
Sunset 2017-12-13 22:57:27 UTC / 2017-12-13 16:57:27 Local
Advertisement - Login to hide

Runways

ID Width Length Bearing (true) Bearing (mag) Surface Threshold Offset Overrun Length
17 75 ft / 23 m 4,456 ft / 1,358 m 175.34° 176.38° Asphalt 0 ft / 0 m 0 ft / 0 m
35 75 ft / 23 m 4,456 ft / 1,358 m 355.34° 356.38° Asphalt 200 ft / 61 m 0 ft / 0 m

Map

Weather


0- 5 10 15 20 25 30 35+ Temperature / ° C

Clouds and Precipitation
Forecast for 2017-12-13 12:00 UTC. Updated 2 hours ago

Ground ~20,000 ft ~40,000 ft Winds

METAR

KMBO 130915Z AUTO 00000KT 10SM CLR M02/M02 A3014 RMK AO2

TAF

Not found

Frequencies

Recorded 119.12 MHz AWOS 3
Clearance 125.90 MHz CLNC DEL
Approach 125.25 MHz JACKSON APP/DEP
Unicom 122.80 MHz CTAF/UNICOM
Approach 123.90 MHz JACKSON APP/DEP
Warning: Do not use this data for real-world aviation or navigation. No guarantee of current accuracy is given.